createdAt,value
2017-10-18T00:02:11.978Z,78.97
2017-10-18T00:04:39.467Z,82.00
2017-10-18T00:07:07.007Z,67.73
2017-10-18T00:09:34.504Z,87.80
2017-10-18T00:12:01.999Z,72.00
2017-10-18T00:14:29.522Z,73.93
2017-10-18T00:16:57.080Z,72.10
2017-10-18T00:19:24.567Z,78.17
2017-10-18T00:21:52.116Z,78.77
2017-10-18T00:24:19.685Z,65.90
2017-10-18T00:26:47.176Z,79.00
2017-10-18T00:29:14.715Z,82.97
2017-10-18T00:31:42.260Z,68.93
2017-10-18T00:34:09.763Z,77.97
2017-10-18T00:36:37.284Z,93.93
2017-10-18T00:39:04.775Z,76.93
2017-10-18T00:41:32.271Z,72.10
2017-10-18T00:43:59.783Z,71.80
2017-10-18T00:46:27.279Z,73.40
2017-10-18T00:48:54.779Z,63.50
2017-10-18T00:51:22.307Z,75.03
2017-10-18T00:53:49.817Z,58.70
2017-10-18T00:56:17.308Z,68.27
2017-10-18T00:58:44.844Z,61.90
2017-10-18T01:01:12.343Z,70.70
2017-10-18T01:03:39.837Z,70.43
2017-10-18T01:06:07.472Z,64.20
2017-10-18T01:08:34.977Z,69.03
2017-10-18T01:11:02.469Z,72.87
2017-10-18T01:13:29.997Z,80.73
2017-10-18T01:15:57.483Z,74.30
2017-10-18T01:18:24.979Z,80.17
2017-10-18T01:20:52.521Z,65.53
2017-10-18T01:23:20.016Z,67.77
2017-10-18T01:25:47.512Z,70.10
2017-10-18T01:28:15.043Z,68.60
2017-10-18T01:30:42.551Z,62.13
2017-10-18T01:33:10.041Z,67.50
2017-10-18T01:35:37.576Z,65.30
2017-10-18T01:38:05.066Z,77.30
2017-10-18T01:40:32.555Z,81.87
2017-10-18T01:43:00.084Z,72.50
2017-10-18T01:45:27.572Z,69.97
2017-10-18T01:47:55.165Z,68.70
2017-10-18T01:50:22.687Z,81.10
2017-10-18T01:52:50.182Z,68.33
2017-10-18T01:55:17.729Z,68.70
2017-10-18T01:57:45.279Z,70.33
2017-10-18T02:00:12.776Z,71.60
2017-10-18T02:02:40.271Z,77.90
2017-10-18T02:05:07.809Z,68.17
2017-10-18T02:07:35.335Z,73.17
2017-10-18T02:10:02.828Z,71.23
2017-10-18T02:12:30.349Z,84.73
2017-10-18T02:14:57.850Z,84.20
2017-10-18T02:17:25.349Z,86.07
2017-10-18T02:19:52.883Z,100.50
2017-10-18T02:22:20.371Z,96.83
2017-10-18T02:24:47.858Z,87.57
2017-10-18T02:27:15.391Z,81.53
2017-10-18T02:29:42.883Z,80.50
2017-10-18T02:32:10.376Z,73.03
2017-10-18T02:34:37.911Z,96.43
2017-10-18T02:37:05.428Z,89.70
2017-10-18T02:39:32.923Z,97.30
2017-10-18T02:42:00.439Z,90.40
2017-10-18T02:44:27.943Z,96.97
2017-10-18T02:46:55.436Z,92.23
2017-10-18T02:49:22.987Z,84.60
2017-10-18T02:51:50.548Z,92.37
2017-10-18T02:54:18.045Z,86.50
2017-10-18T02:56:45.697Z,96.50
2017-10-18T02:59:13.193Z,82.67
2017-10-18T03:01:40.684Z,76.00
2017-10-18T03:04:08.214Z,78.47
2017-10-18T03:06:35.703Z,74.80
2017-10-18T03:09:03.201Z,83.07
2017-10-18T03:11:30.726Z,76.93
2017-10-18T03:13:58.213Z,76.13
2017-10-18T03:16:25.709Z,81.23
2017-10-18T03:18:53.233Z,77.43
2017-10-18T03:21:20.728Z,77.87
2017-10-18T03:23:48.228Z,69.20
2017-10-18T03:26:15.751Z,77.27
2017-10-18T03:28:43.251Z,71.03
2017-10-18T03:31:10.811Z,67.70
2017-10-18T03:33:38.308Z,69.53
2017-10-18T03:36:05.822Z,71.70
2017-10-18T03:38:33.347Z,73.53
2017-10-18T03:41:00.940Z,69.67
2017-10-18T03:43:28.503Z,76.47
2017-10-18T03:45:56.033Z,70.07
2017-10-18T03:48:23.550Z,78.33
2017-10-18T03:50:51.080Z,78.17
2017-10-18T03:53:18.601Z,68.07
2017-10-18T03:55:46.097Z,76.10
2017-10-18T03:58:13.637Z,76.83
2017-10-18T04:00:41.128Z,84.23
2017-10-18T04:03:08.623Z,75.90
2017-10-18T04:05:36.164Z,80.93
2017-10-18T04:08:03.655Z,82.40
2017-10-18T04:10:31.148Z,67.50
2017-10-18T04:12:58.675Z,79.33
2017-10-18T04:15:26.171Z,77.70
2017-10-18T04:17:53.670Z,83.27
2017-10-18T04:20:21.283Z,79.73
2017-10-18T04:22:48.776Z,84.73
2017-10-18T04:25:16.272Z,71.50
2017-10-18T04:27:43.800Z,91.50
2017-10-18T04:30:11.292Z,87.53
2017-10-18T04:32:38.788Z,92.53
2017-10-18T04:35:06.322Z,86.43
2017-10-18T04:37:33.903Z,101.57
2017-10-18T04:40:01.445Z,76.67
2017-10-18T04:42:28.984Z,79.27
2017-10-18T04:44:56.543Z,88.53
2017-10-18T04:47:24.045Z,87.70
2017-10-18T04:49:51.568Z,77.80
2017-10-18T04:52:19.064Z,79.77
2017-10-18T04:54:46.559Z,73.13
2017-10-18T04:57:14.105Z,66.93
2017-10-18T04:59:41.606Z,71.33
2017-10-18T05:02:09.103Z,55.87
2017-10-18T05:04:36.641Z,63.17
2017-10-18T05:07:04.142Z,58.30
2017-10-18T05:09:31.627Z,68.53
2017-10-18T05:11:59.168Z,59.27
2017-10-18T05:14:26.657Z,63.57
2017-10-18T05:16:54.155Z,68.80
2017-10-18T05:19:21.684Z,60.90
2017-10-18T05:21:49.187Z,66.00
2017-10-18T05:24:16.676Z,61.87
2017-10-18T05:26:44.204Z,61.10
2017-10-18T05:29:11.695Z,75.87
2017-10-18T05:31:39.268Z,73.80
2017-10-18T05:34:06.831Z,75.33
2017-10-18T05:36:34.332Z,83.17
2017-10-18T05:39:01.838Z,91.27
2017-10-18T05:41:29.372Z,63.67
2017-10-18T05:43:56.864Z,71.47
2017-10-18T05:46:24.359Z,76.43
2017-10-18T05:48:51.904Z,78.77
2017-10-18T05:51:19.408Z,81.50
2017-10-18T05:53:46.960Z,85.77
2017-10-18T05:56:14.488Z,106.17
2017-10-18T05:58:41.983Z,90.87
2017-10-18T06:01:09.488Z,73.87
2017-10-18T06:03:37.042Z,77.23
2017-10-18T06:06:04.527Z,74.70
2017-10-18T06:08:32.062Z,91.20
2017-10-18T06:10:59.708Z,81.87
2017-10-18T06:13:27.200Z,89.77
2017-10-18T06:15:54.723Z,85.47
2017-10-18T06:18:22.268Z,87.20
2017-10-18T06:20:49.760Z,77.30
2017-10-18T06:23:17.255Z,77.33
2017-10-18T06:25:44.787Z,91.43
2017-10-18T06:28:12.280Z,79.83
2017-10-18T06:30:39.784Z,65.90
2017-10-18T06:33:07.322Z,79.67
2017-10-18T06:35:34.820Z,84.27
2017-10-18T06:38:02.317Z,82.00
2017-10-18T06:40:29.871Z,85.10
2017-10-18T06:42:57.371Z,83.03
2017-10-18T06:45:24.859Z,70.40
2017-10-18T06:47:52.393Z,94.77
2017-10-18T06:50:19.896Z,103.53
2017-10-18T06:52:47.396Z,98.47
2017-10-18T06:55:14.950Z,98.43
2017-10-18T06:57:42.444Z,79.80
2017-10-18T07:00:09.977Z,90.17
2017-10-18T07:02:37.501Z,117.70
2017-10-18T07:05:05.085Z,82.67
2017-10-18T07:07:32.643Z,75.03
2017-10-18T07:10:00.128Z,76.77
2017-10-18T07:12:27.655Z,89.07
2017-10-18T07:14:55.144Z,85.20
2017-10-18T07:17:22.637Z,83.30
2017-10-18T07:19:50.162Z,75.33
2017-10-18T07:22:17.662Z,64.87
2017-10-18T07:24:45.256Z,67.40
2017-10-18T07:27:12.752Z,70.47
2017-10-18T07:29:40.243Z,72.97
2017-10-18T07:32:07.783Z,61.07
2017-10-18T07:34:35.295Z,67.63
2017-10-18T07:37:02.850Z,82.07
2017-10-18T07:39:30.387Z,62.07
2017-10-18T07:41:57.958Z,64.63
2017-10-18T07:44:25.457Z,59.67
2017-10-18T07:46:52.986Z,52.37
2017-10-18T07:49:20.544Z,62.37
2017-10-18T07:51:48.040Z,73.20
2017-10-18T07:54:15.656Z,65.70
2017-10-18T07:56:43.160Z,73.30
2017-10-18T07:59:10.663Z,62.50
2017-10-18T08:01:38.845Z,77.60
2017-10-18T08:04:06.333Z,67.73
2017-10-18T08:06:33.834Z,91.73
2017-10-18T08:09:01.384Z,70.97
2017-10-18T08:11:28.890Z,83.93
2017-10-18T08:13:56.387Z,75.30
2017-10-18T08:16:23.900Z,82.83
2017-10-18T08:18:51.397Z,77.00
2017-10-18T08:21:18.919Z,77.40
2017-10-18T08:23:46.475Z,81.40
2017-10-18T08:26:14.035Z,84.80
2017-10-18T08:28:41.570Z,82.03
2017-10-18T08:31:09.066Z,80.20
2017-10-18T08:33:36.563Z,72.80
2017-10-18T08:36:04.174Z,86.87
2017-10-18T08:38:31.670Z,80.27
2017-10-18T08:40:59.160Z,80.97
2017-10-18T08:43:26.692Z,106.90
2017-10-18T08:45:54.185Z,90.83
2017-10-18T08:48:21.959Z,90.93
2017-10-18T08:50:49.536Z,78.13
2017-10-18T08:53:17.033Z,85.93
2017-10-18T08:55:44.526Z,91.27
2017-10-18T08:58:12.042Z,80.27
2017-10-18T09:00:39.564Z,81.43
2017-10-18T09:03:07.063Z,81.53
2017-10-18T09:05:34.588Z,89.30
2017-10-18T09:08:02.088Z,83.83
2017-10-18T09:10:29.580Z,78.20
2017-10-18T09:12:57.119Z,94.17
2017-10-18T09:15:24.620Z,99.47
2017-10-18T09:17:52.111Z,92.30
2017-10-18T09:20:19.635Z,82.17
2017-10-18T09:22:47.124Z,70.83
2017-10-18T09:25:14.644Z,79.43
2017-10-18T09:27:42.134Z,79.40
2017-10-18T09:30:09.654Z,98.07
2017-10-18T09:32:37.195Z,95.23
2017-10-18T09:35:04.790Z,94.50
2017-10-18T09:37:32.288Z,103.17
2017-10-18T09:39:59.823Z,94.67
2017-10-18T09:42:27.311Z,88.87
2017-10-18T09:44:54.800Z,79.17
2017-10-18T09:47:22.331Z,95.00
2017-10-18T09:49:49.829Z,78.13
2017-10-18T09:52:17.319Z,73.90
2017-10-18T09:54:44.845Z,109.80
2017-10-18T09:57:12.340Z,70.93
2017-10-18T09:59:39.859Z,68.73
2017-10-18T10:02:07.373Z,66.80
2017-10-18T10:04:34.868Z,62.33
2017-10-18T10:07:02.405Z,66.93
2017-10-18T10:09:29.998Z,72.60
2017-10-18T10:11:57.501Z,59.93
2017-10-18T10:14:25.103Z,50.07
2017-10-18T10:16:52.601Z,64.30
2017-10-18T10:19:20.098Z,54.53
2017-10-18T10:21:47.637Z,69.93
2017-10-18T10:24:15.135Z,59.87
2017-10-18T10:26:42.628Z,36.90
2017-10-18T10:29:10.159Z,43.80
2017-10-18T10:31:37.650Z,64.57
2017-10-18T10:34:05.144Z,52.60
2017-10-18T10:36:32.743Z,58.80
2017-10-18T10:39:00.301Z,52.67
2017-10-18T10:41:27.791Z,52.03
2017-10-18T10:43:55.414Z,45.90
2017-10-18T10:46:22.968Z,49.50
2017-10-18T10:48:50.468Z,69.87
2017-10-18T10:51:17.988Z,47.63
2017-10-18T10:53:45.479Z,53.80
2017-10-18T10:56:12.967Z,49.67
2017-10-18T10:58:40.488Z,44.53
2017-10-18T11:01:07.986Z,49.23
2017-10-18T11:03:35.561Z,54.07
2017-10-18T11:06:03.055Z,49.73
2017-10-18T11:08:30.538Z,63.77
2017-10-18T11:10:58.098Z,49.97
2017-10-18T11:13:25.608Z,56.73
2017-10-18T11:15:53.104Z,50.97
2017-10-18T11:18:20.636Z,46.90
2017-10-18T11:20:48.132Z,66.70
2017-10-18T11:23:15.627Z,61.50
2017-10-18T11:25:43.155Z,53.87
2017-10-18T11:28:10.645Z,62.80
2017-10-18T11:30:38.132Z,46.37
2017-10-18T11:33:05.779Z,55.33
2017-10-18T11:35:33.347Z,47.00
2017-10-18T11:38:00.836Z,70.50
2017-10-18T11:40:28.580Z,47.13
2017-10-18T11:42:56.072Z,47.73
2017-10-18T11:45:23.561Z,40.53
2017-10-18T11:47:51.104Z,45.03
2017-10-18T11:50:18.603Z,52.50
2017-10-18T11:52:46.091Z,39.20
2017-10-18T11:55:13.715Z,41.77
2017-10-18T11:57:41.208Z,47.37
2017-10-18T12:00:08.701Z,53.43
2017-10-18T12:02:36.236Z,41.87
2017-10-18T12:05:03.732Z,40.67
2017-10-18T12:07:31.302Z,35.30
2017-10-18T12:09:58.844Z,39.87
2017-10-18T12:12:26.337Z,39.20
2017-10-18T12:14:53.831Z,54.07
2017-10-18T12:17:21.375Z,56.10
2017-10-18T12:19:48.864Z,39.10
2017-10-18T12:22:16.372Z,42.70
2017-10-18T12:24:43.908Z,46.03
2017-10-18T12:27:11.400Z,47.27
2017-10-18T12:29:38.899Z,34.60
2017-10-18T12:32:06.416Z,51.00
2017-10-18T12:34:33.927Z,40.33
2017-10-18T12:37:01.467Z,40.97
2017-10-18T12:39:28.964Z,33.70
2017-10-18T12:41:56.518Z,35.43
2017-10-18T12:44:24.098Z,31.77
2017-10-18T12:46:51.647Z,38.50
2017-10-18T12:49:19.140Z,47.07
2017-10-18T12:51:46.678Z,36.87
2017-10-18T12:54:14.170Z,42.30
2017-10-18T12:56:41.667Z,38.40
2017-10-18T12:59:09.183Z,36.63
2017-10-18T13:01:36.684Z,36.70
2017-10-18T13:04:04.214Z,32.20
2017-10-18T13:06:31.804Z,30.63
2017-10-18T13:08:59.298Z,32.97
2017-10-18T13:11:26.852Z,43.07
2017-10-18T13:13:54.355Z,28.50
2017-10-18T13:16:21.860Z,40.90
2017-10-18T13:18:49.417Z,67.53
2017-10-18T13:21:16.911Z,33.30
2017-10-18T13:23:44.407Z,32.97
2017-10-18T13:26:11.972Z,36.03
2017-10-18T13:28:39.541Z,31.10
2017-10-18T13:31:07.042Z,41.37
2017-10-18T13:33:34.671Z,40.17
2017-10-18T13:36:02.160Z,43.07
2017-10-18T13:38:29.656Z,89.13
2017-10-18T13:40:57.252Z,39.77
2017-10-18T13:43:24.755Z,34.07
2017-10-18T13:45:52.263Z,38.50
2017-10-18T13:48:19.801Z,35.23
2017-10-18T13:50:47.291Z,38.53
2017-10-18T13:53:14.783Z,42.70
2017-10-18T13:55:42.331Z,38.67
2017-10-18T13:58:09.840Z,32.67
2017-10-18T14:00:37.339Z,33.67
2017-10-18T14:03:04.872Z,33.90
2017-10-18T14:05:32.370Z,47.83
2017-10-18T14:07:59.877Z,37.43
2017-10-18T14:10:27.431Z,34.20
2017-10-18T14:12:54.931Z,40.63
2017-10-18T14:15:22.431Z,32.43
2017-10-18T14:17:49.972Z,40.67
2017-10-18T14:20:17.569Z,40.57
2017-10-18T14:22:45.101Z,36.70
2017-10-18T14:25:12.640Z,33.80
2017-10-18T14:27:40.238Z,54.13
2017-10-18T14:30:07.736Z,35.37
2017-10-18T14:32:35.263Z,35.73
2017-10-18T14:35:02.765Z,34.13
2017-10-18T14:37:30.256Z,34.23
2017-10-18T14:39:57.771Z,35.87
2017-10-18T14:42:25.336Z,32.23
2017-10-18T14:44:52.836Z,32.93
2017-10-18T14:47:20.328Z,32.53
2017-10-18T14:49:47.972Z,33.20
2017-10-18T14:52:15.469Z,32.23
2017-10-18T14:54:42.967Z,37.63
2017-10-18T14:57:10.561Z,35.17
2017-10-18T14:59:38.077Z,30.73
2017-10-18T15:02:05.604Z,35.50
2017-10-18T15:04:33.241Z,33.00
2017-10-18T15:07:00.787Z,29.20
2017-10-18T15:09:28.295Z,37.10
2017-10-18T15:11:55.782Z,29.07
2017-10-18T15:14:23.353Z,28.93
2017-10-18T15:16:50.925Z,34.97
2017-10-18T15:19:18.415Z,28.63
2017-10-18T15:21:45.956Z,34.60
2017-10-18T15:24:13.456Z,35.00
2017-10-18T15:26:41.051Z,37.70
2017-10-18T15:29:08.587Z,43.83
2017-10-18T15:31:36.081Z,41.40
2017-10-18T15:34:03.572Z,39.70
2017-10-18T15:36:31.107Z,41.00
2017-10-18T15:38:58.612Z,43.70
2017-10-18T15:41:26.103Z,52.50
2017-10-18T15:43:53.635Z,45.33
2017-10-18T15:46:21.125Z,49.50
2017-10-18T15:48:48.614Z,45.53
2017-10-18T15:51:16.177Z,47.67
2017-10-18T15:53:43.677Z,42.53
2017-10-18T15:56:11.175Z,48.70
2017-10-18T15:58:38.911Z,41.20
2017-10-18T16:01:06.401Z,61.07
2017-10-18T16:03:33.904Z,54.60
2017-10-18T16:06:01.465Z,73.93
2017-10-18T16:08:29.028Z,61.27
2017-10-18T16:10:56.529Z,59.07
2017-10-18T16:13:24.091Z,61.10
2017-10-18T16:15:51.624Z,64.47
2017-10-18T16:18:19.119Z,50.03
2017-10-18T16:20:46.669Z,55.03
2017-10-18T16:23:14.181Z,59.47
2017-10-18T16:25:41.669Z,61.63
2017-10-18T16:28:09.216Z,63.67
2017-10-18T16:30:36.713Z,67.50
2017-10-18T16:33:04.225Z,57.27
2017-10-18T16:35:31.743Z,56.43
2017-10-18T16:37:59.266Z,58.30
2017-10-18T16:40:26.756Z,76.47
2017-10-18T16:42:54.387Z,66.27
2017-10-18T16:45:21.883Z,72.63
2017-10-18T16:47:51.540Z,66.50
2017-10-18T16:50:22.034Z,56.53
2017-10-18T16:52:49.812Z,64.47
2017-10-18T16:55:17.318Z,68.07
2017-10-18T16:57:44.903Z,58.93
2017-10-18T17:00:13.576Z,58.30
2017-10-18T17:02:42.777Z,60.37
2017-10-18T17:05:10.332Z,68.90
2017-10-18T17:07:37.831Z,58.23
2017-10-18T17:10:05.324Z,55.50
2017-10-18T17:12:32.852Z,58.77
2017-10-18T17:15:00.338Z,55.43
2017-10-18T17:17:27.827Z,63.33
2017-10-18T17:19:55.351Z,50.60
2017-10-18T17:22:22.839Z,53.43
2017-10-18T17:24:50.447Z,59.93
2017-10-18T17:27:18.006Z,52.40
2017-10-18T17:29:45.571Z,56.60
2017-10-18T17:32:13.066Z,56.10
2017-10-18T17:34:40.560Z,52.50
2017-10-18T17:37:08.119Z,60.03
2017-10-18T17:39:35.620Z,55.33
2017-10-18T17:42:03.116Z,65.50
2017-10-18T17:44:30.640Z,73.07
2017-10-18T17:46:58.134Z,71.10
2017-10-18T17:49:25.621Z,60.50
2017-10-18T17:51:53.164Z,65.03
2017-10-18T17:54:20.658Z,52.40
2017-10-18T17:56:48.215Z,64.53
2017-10-18T17:59:15.733Z,59.93
2017-10-18T18:01:43.232Z,58.17
2017-10-18T18:04:10.882Z,60.10
2017-10-18T18:06:38.372Z,59.80
2017-10-18T18:09:06.029Z,50.27
2017-10-18T18:11:33.568Z,61.40
2017-10-18T18:14:01.055Z,61.90
2017-10-18T18:16:28.546Z,74.70
2017-10-18T18:18:56.140Z,66.10
2017-10-18T18:21:23.640Z,53.00
2017-10-18T18:23:51.164Z,64.13
2017-10-18T18:26:18.695Z,52.27
2017-10-18T18:28:46.189Z,70.00
2017-10-18T18:31:13.684Z,59.73
2017-10-18T18:33:41.275Z,58.10
2017-10-18T18:36:08.770Z,65.07
2017-10-18T18:38:36.262Z,56.23
2017-10-18T18:41:04.096Z,59.57
2017-10-18T18:43:31.601Z,70.37
2017-10-18T18:45:59.195Z,73.20
2017-10-18T18:48:26.773Z,59.23
2017-10-18T18:50:54.328Z,74.97
2017-10-18T18:53:21.822Z,59.13
2017-10-18T18:55:49.538Z,71.87
2017-10-18T18:58:17.039Z,70.90
2017-10-18T19:00:44.557Z,85.93
2017-10-18T19:03:12.075Z,76.90
2017-10-18T19:05:39.576Z,76.97
2017-10-18T19:08:07.090Z,76.27
2017-10-18T19:10:34.632Z,63.47
2017-10-18T19:13:02.128Z,76.00
2017-10-18T19:15:29.621Z,64.77
2017-10-18T19:17:57.183Z,53.83
2017-10-18T19:20:24.695Z,67.70
2017-10-18T19:22:52.189Z,61.63
2017-10-18T19:25:19.736Z,68.23
2017-10-18T19:27:47.244Z,65.77
2017-10-18T19:30:14.737Z,67.70
2017-10-18T19:32:42.271Z,63.23
2017-10-18T19:35:09.764Z,68.43
2017-10-18T19:37:37.329Z,55.90
2017-10-18T19:40:04.875Z,72.93
2017-10-18T19:42:32.373Z,71.87
2017-10-18T19:44:59.876Z,60.23
2017-10-18T19:47:27.472Z,76.03
2017-10-18T19:49:54.960Z,61.20
2017-10-18T19:52:22.483Z,72.20
2017-10-18T19:54:50.043Z,52.83
2017-10-18T19:57:17.535Z,58.90
2017-10-18T19:59:45.020Z,60.70
2017-10-18T20:02:12.538Z,64.80
2017-10-18T20:04:40.043Z,69.17
2017-10-18T20:07:07.568Z,57.63
2017-10-18T20:09:35.057Z,63.50
2017-10-18T20:12:02.566Z,58.93
2017-10-18T20:14:30.087Z,50.40
2017-10-18T20:16:57.585Z,63.80
2017-10-18T20:19:25.070Z,45.90
2017-10-18T20:21:52.697Z,55.20
2017-10-18T20:24:20.205Z,52.67
2017-10-18T20:26:47.800Z,51.03
2017-10-18T20:29:15.324Z,49.93
2017-10-18T20:31:42.916Z,56.87
2017-10-18T20:34:10.412Z,58.50
2017-10-18T20:36:38.245Z,43.00
2017-10-18T20:39:05.805Z,54.73
2017-10-18T20:41:33.304Z,50.40
2017-10-18T20:44:00.916Z,50.07
2017-10-18T20:46:28.418Z,52.60
2017-10-18T20:48:55.918Z,45.70
2017-10-18T20:51:23.456Z,50.43
2017-10-18T20:53:50.950Z,53.17
2017-10-18T20:56:18.502Z,55.40
2017-10-18T20:58:46.374Z,53.40
2017-10-18T21:01:13.863Z,48.27
2017-10-18T21:03:41.365Z,51.83
2017-10-18T21:06:09.162Z,51.67
2017-10-18T21:08:36.661Z,47.43
2017-10-18T21:11:04.163Z,54.33
2017-10-18T21:13:32.161Z,48.50
2017-10-18T21:15:59.669Z,48.83
2017-10-18T21:18:27.156Z,46.03
2017-10-18T21:20:54.756Z,48.07
2017-10-18T21:23:22.274Z,44.37
2017-10-18T21:25:49.948Z,48.87
2017-10-18T21:28:17.595Z,50.80
2017-10-18T21:30:45.098Z,50.87
2017-10-18T21:33:12.592Z,50.57
2017-10-18T21:35:40.280Z,50.63
2017-10-18T21:38:07.777Z,47.07
2017-10-18T21:40:35.274Z,57.23
2017-10-18T21:43:03.080Z,49.63
2017-10-18T21:45:30.615Z,53.63
2017-10-18T21:47:58.108Z,42.37
2017-10-18T21:50:25.644Z,39.60
2017-10-18T21:52:53.139Z,62.30
2017-10-18T21:55:20.631Z,54.27
2017-10-18T21:57:48.230Z,57.20
2017-10-18T22:00:15.772Z,49.23
2017-10-18T22:02:43.274Z,50.37
2017-10-18T22:05:10.893Z,48.97
2017-10-18T22:07:38.389Z,50.37
2017-10-18T22:10:05.884Z,40.73
2017-10-18T22:12:33.561Z,45.83
2017-10-18T22:15:01.054Z,49.47
2017-10-18T22:17:28.547Z,48.53
2017-10-18T22:19:56.340Z,54.73
2017-10-18T22:22:23.827Z,42.53
2017-10-18T22:24:51.356Z,44.07
2017-10-18T22:27:18.920Z,46.20
2017-10-18T22:29:46.407Z,53.37
2017-10-18T22:32:13.935Z,57.40
2017-10-18T22:34:41.475Z,44.20
2017-10-18T22:37:09.052Z,49.00
2017-10-18T22:39:36.578Z,44.77
2017-10-18T22:42:04.172Z,45.13
2017-10-18T22:44:31.734Z,52.10
2017-10-18T22:46:59.235Z,51.97
2017-10-18T22:49:26.851Z,68.77
2017-10-18T22:51:54.344Z,46.80
2017-10-18T22:54:21.864Z,68.53
2017-10-18T22:56:49.438Z,52.60
2017-10-18T22:59:16.992Z,49.23
2017-10-18T23:01:44.488Z,64.57
2017-10-18T23:04:12.021Z,66.67
2017-10-18T23:06:39.521Z,62.87
2017-10-18T23:09:07.014Z,55.30
2017-10-18T23:11:34.689Z,58.10
2017-10-18T23:14:02.182Z,61.87
2017-10-18T23:16:29.726Z,61.53
2017-10-18T23:18:57.274Z,62.73
2017-10-18T23:21:24.770Z,58.30
2017-10-18T23:23:53.199Z,56.23
2017-10-18T23:26:20.839Z,67.53
2017-10-18T23:28:48.418Z,65.93
2017-10-18T23:31:15.914Z,59.07
2017-10-18T23:33:43.541Z,58.10
2017-10-18T23:36:11.101Z,64.40
2017-10-18T23:38:38.593Z,62.73
2017-10-18T23:41:06.136Z,70.17
2017-10-18T23:43:33.632Z,66.53
2017-10-18T23:46:01.122Z,74.37
2017-10-18T23:48:28.685Z,67.17
2017-10-18T23:50:56.210Z,56.60
2017-10-18T23:53:23.712Z,78.47
2017-10-18T23:55:51.228Z,64.50
2017-10-18T23:58:18.820Z,59.60
